createdAt,value
2023-05-31T00:01:42.391Z,12.80
2023-05-31T00:04:09.514Z,12.70
2023-05-31T00:06:36.782Z,12.70
2023-05-31T00:09:04.355Z,12.70
2023-05-31T00:11:31.338Z,12.80
2023-05-31T00:13:58.323Z,12.80
2023-05-31T00:16:52.698Z,12.80
2023-05-31T00:19:12.433Z,12.80
2023-05-31T00:21:39.510Z,12.90
2023-05-31T00:24:06.835Z,13.00
2023-05-31T00:26:33.897Z,12.90
2023-05-31T00:29:01.020Z,12.90
2023-05-31T00:31:28.143Z,12.90
2023-05-31T00:33:55.125Z,12.80
2023-05-31T00:36:22.505Z,12.90
2023-05-31T00:38:49.872Z,12.80
2023-05-31T00:41:18.068Z,12.80
2023-05-31T00:43:45.094Z,12.90
2023-05-31T00:46:26.581Z,12.80
2023-05-31T00:48:54.260Z,12.80
2023-05-31T00:51:21.936Z,12.70
2023-05-31T00:53:49.259Z,12.70
2023-05-31T00:56:16.918Z,12.60
2023-05-31T00:58:46.397Z,12.40
2023-05-31T01:01:14.991Z,12.40
2023-05-31T01:03:42.696Z,12.40
2023-05-31T01:06:10.951Z,12.40
2023-05-31T01:08:39.520Z,12.30
2023-05-31T01:11:33.072Z,12.20
2023-05-31T01:14:16.071Z,12.20
2023-05-31T01:16:48.427Z,12.20
2023-05-31T01:19:42.123Z,12.20
2023-05-31T01:22:21.731Z,12.10
2023-05-31T01:25:07.475Z,12.10
2023-05-31T01:27:35.662Z,12.00
2023-05-31T01:30:05.800Z,12.00
2023-05-31T01:32:34.234Z,12.10
2023-05-31T01:35:04.344Z,12.10
2023-05-31T01:37:31.350Z,12.00
2023-05-31T01:39:59.779Z,12.10
2023-05-31T01:42:27.423Z,12.00
2023-05-31T01:44:56.068Z,12.00
2023-05-31T01:47:23.822Z,12.00
2023-05-31T01:49:53.551Z,12.00
2023-05-31T01:52:22.144Z,12.00
2023-05-31T01:54:49.304Z,12.00
2023-05-31T01:57:17.391Z,11.90
2023-05-31T01:59:47.392Z,11.90
2023-05-31T02:02:14.599Z,11.90
2023-05-31T02:04:42.337Z,12.00
2023-05-31T02:07:10.734Z,12.00
2023-05-31T02:09:37.792Z,12.00
2023-05-31T02:12:06.231Z,12.00
2023-05-31T02:14:33.261Z,12.00
2023-05-31T02:17:00.273Z,11.90
2023-05-31T02:19:27.509Z,11.90
2023-05-31T02:21:54.466Z,11.80
2023-05-31T02:24:21.408Z,11.80
2023-05-31T02:26:48.322Z,11.80
2023-05-31T02:29:15.320Z,11.80
2023-05-31T02:31:42.477Z,11.70
2023-05-31T02:34:10.624Z,11.70
2023-05-31T02:36:37.629Z,11.60
2023-05-31T02:39:06.083Z,11.60
2023-05-31T02:41:33.926Z,11.50
2023-05-31T02:44:00.909Z,11.60
2023-05-31T02:46:27.903Z,11.50
2023-05-31T02:48:54.865Z,11.50
2023-05-31T02:51:21.872Z,11.50
2023-05-31T02:54:07.375Z,11.40
2023-05-31T02:56:37.415Z,11.40
2023-05-31T02:59:13.579Z,11.40
2023-05-31T03:01:43.072Z,11.40
2023-05-31T03:04:26.695Z,11.40
2023-05-31T03:06:56.950Z,11.20
2023-05-31T03:09:23.994Z,11.20
2023-05-31T03:11:51.358Z,11.20
2023-05-31T03:14:20.562Z,11.30
2023-05-31T03:16:51.282Z,11.20
2023-05-31T03:19:18.615Z,11.20
2023-05-31T03:21:49.343Z,11.20
2023-05-31T03:24:16.376Z,11.20
2023-05-31T03:26:45.222Z,11.10
2023-05-31T03:29:12.476Z,11.10
2023-05-31T03:31:39.439Z,11.10
2023-05-31T03:34:07.159Z,11.00
2023-05-31T03:36:34.129Z,10.80
2023-05-31T03:39:07.160Z,10.80
2023-05-31T03:41:34.200Z,10.80
2023-05-31T03:44:01.207Z,10.90
2023-05-31T03:46:28.649Z,10.90
2023-05-31T03:48:56.338Z,11.00
2023-05-31T03:51:24.784Z,11.20
2023-05-31T03:53:51.807Z,11.60
2023-05-31T03:56:18.828Z,11.80
2023-05-31T03:58:45.970Z,11.90
2023-05-31T04:01:14.833Z,11.80
2023-05-31T04:03:42.073Z,12.10
2023-05-31T04:06:09.467Z,12.10
2023-05-31T04:08:36.629Z,12.30
2023-05-31T04:11:04.140Z,11.70
2023-05-31T04:13:31.440Z,11.50
2023-05-31T04:15:58.670Z,11.20
2023-05-31T04:18:25.694Z,11.50
2023-05-31T04:20:52.972Z,12.40
2023-05-31T04:23:19.922Z,13.30
2023-05-31T04:25:47.204Z,13.60
2023-05-31T04:28:16.313Z,14.20
2023-05-31T04:30:45.628Z,14.90
2023-05-31T04:33:13.409Z,15.60
2023-05-31T04:35:41.576Z,16.00
2023-05-31T04:38:09.306Z,16.40
2023-05-31T04:40:36.387Z,17.00
2023-05-31T04:43:04.018Z,17.60
2023-05-31T04:45:33.937Z,18.20
2023-05-31T04:48:03.076Z,18.80
2023-05-31T04:50:31.306Z,19.30
2023-05-31T04:52:59.127Z,19.60
2023-05-31T04:55:27.419Z,20.10
2023-05-31T04:57:55.332Z,20.40
2023-05-31T05:00:22.287Z,20.80
2023-05-31T05:03:10.080Z,21.10
2023-05-31T05:05:38.611Z,21.10
2023-05-31T05:08:05.771Z,21.60
2023-05-31T05:10:32.718Z,22.00
2023-05-31T05:12:59.759Z,22.40
2023-05-31T05:15:26.790Z,22.60
2023-05-31T05:17:53.768Z,22.20
2023-05-31T05:20:21.989Z,21.90
2023-05-31T05:22:53.161Z,22.30
2023-05-31T05:25:23.930Z,23.40
2023-05-31T05:27:51.288Z,24.10
2023-05-31T05:30:19.409Z,23.90
2023-05-31T05:32:48.255Z,23.70
2023-05-31T05:35:15.313Z,24.00
2023-05-31T05:37:42.301Z,24.60
2023-05-31T05:40:09.729Z,24.60
2023-05-31T05:42:39.966Z,24.60
2023-05-31T05:45:08.279Z,25.30
2023-05-31T05:47:38.320Z,25.50
2023-05-31T05:50:06.715Z,24.00
2023-05-31T05:52:33.799Z,23.10
2023-05-31T05:55:01.034Z,24.20
2023-05-31T05:57:29.006Z,24.70
2023-05-31T06:00:12.112Z,26.10
2023-05-31T06:02:42.043Z,26.40
2023-05-31T06:05:09.773Z,27.00
2023-05-31T06:07:36.853Z,27.30
2023-05-31T06:10:04.386Z,26.10
2023-05-31T06:12:34.153Z,25.70
2023-05-31T06:15:01.427Z,25.40
2023-05-31T06:17:28.518Z,24.80
2023-05-31T06:19:55.614Z,25.40
2023-05-31T06:22:22.617Z,25.30
2023-05-31T06:24:50.933Z,26.90
2023-05-31T06:27:18.077Z,27.30
2023-05-31T06:29:45.904Z,27.50
2023-05-31T06:32:31.411Z,28.30
2023-05-31T06:34:58.709Z,29.00
2023-05-31T06:37:25.661Z,29.00
2023-05-31T06:39:54.397Z,28.90
2023-05-31T06:42:22.800Z,29.30
2023-05-31T06:44:58.961Z,30.20
2023-05-31T06:47:54.983Z,29.70
2023-05-31T06:50:45.489Z,29.80
2023-05-31T06:53:30.987Z,31.00
2023-05-31T06:56:21.042Z,30.40
2023-05-31T06:58:49.246Z,28.90
2023-05-31T07:01:16.351Z,28.90
2023-05-31T07:03:43.461Z,30.00
2023-05-31T07:06:10.509Z,29.70
2023-05-31T07:08:38.456Z,28.80
2023-05-31T07:11:24.455Z,29.90
2023-05-31T07:13:51.664Z,31.70
2023-05-31T07:16:20.254Z,31.20
2023-05-31T07:18:48.550Z,31.50
2023-05-31T07:21:16.851Z,31.80
2023-05-31T07:23:43.868Z,32.10
2023-05-31T07:26:10.942Z,31.60
2023-05-31T07:28:38.303Z,30.30
2023-05-31T07:31:05.722Z,31.60
2023-05-31T07:33:32.988Z,33.00
2023-05-31T07:36:01.927Z,33.40
2023-05-31T07:38:29.734Z,33.50
2023-05-31T07:40:57.239Z,33.90
2023-05-31T07:43:27.782Z,32.60
2023-05-31T07:45:55.890Z,31.40
2023-05-31T07:48:23.081Z,31.50
2023-05-31T07:50:50.421Z,31.70
2023-05-31T07:53:17.812Z,32.60
2023-05-31T07:55:45.878Z,32.20
2023-05-31T07:58:13.087Z,32.90
2023-05-31T08:00:40.663Z,33.70
2023-05-31T08:03:07.845Z,34.70
2023-05-31T08:05:35.102Z,34.30
2023-05-31T08:08:02.083Z,33.30
2023-05-31T08:10:30.976Z,34.50
2023-05-31T08:12:57.974Z,34.80
2023-05-31T08:15:25.080Z,34.40
2023-05-31T08:17:52.171Z,34.90
2023-05-31T08:20:19.305Z,33.60
2023-05-31T08:22:46.510Z,32.60
2023-05-31T08:25:15.338Z,33.00
2023-05-31T08:27:42.427Z,33.50
2023-05-31T08:30:13.352Z,33.20
2023-05-31T08:32:44.171Z,35.20
2023-05-31T08:35:11.433Z,35.50
2023-05-31T08:37:39.069Z,33.50
2023-05-31T08:40:06.916Z,33.30
2023-05-31T08:42:53.163Z,34.20
2023-05-31T08:45:20.791Z,33.60
2023-05-31T08:47:56.843Z,32.80
2023-05-31T08:50:25.318Z,34.80
2023-05-31T08:52:52.466Z,34.70
2023-05-31T08:55:20.247Z,34.30
2023-05-31T08:57:47.766Z,36.50
2023-05-31T09:00:15.437Z,36.80
2023-05-31T09:02:42.845Z,36.40
2023-05-31T09:05:12.529Z,36.90
2023-05-31T09:07:40.182Z,35.90
2023-05-31T09:10:10.102Z,35.80
2023-05-31T09:12:38.058Z,35.10
2023-05-31T09:15:06.895Z,33.90
2023-05-31T09:17:34.093Z,32.50
2023-05-31T09:20:02.176Z,33.40
2023-05-31T09:22:29.280Z,35.40
2023-05-31T09:25:01.240Z,33.90
2023-05-31T09:27:37.046Z,33.10
2023-05-31T09:30:12.986Z,33.20
2023-05-31T09:32:40.698Z,33.50
2023-05-31T09:35:14.377Z,35.10
2023-05-31T09:37:45.544Z,36.00
2023-05-31T09:40:15.318Z,33.90
2023-05-31T09:42:50.066Z,34.10
2023-05-31T09:45:17.552Z,34.90
2023-05-31T09:47:45.021Z,32.30
2023-05-31T09:50:12.961Z,32.10
2023-05-31T09:52:40.025Z,32.00
2023-05-31T09:55:08.529Z,31.60
2023-05-31T09:57:41.906Z,31.70
2023-05-31T10:00:16.478Z,32.30
2023-05-31T10:02:54.408Z,31.40
2023-05-31T10:05:22.213Z,32.10
2023-05-31T10:07:54.217Z,32.20
2023-05-31T10:10:21.862Z,32.20
2023-05-31T10:13:00.674Z,31.80
2023-05-31T10:15:33.274Z,31.60
2023-05-31T10:18:08.244Z,32.00
2023-05-31T10:20:42.230Z,32.80
2023-05-31T10:23:21.244Z,31.80
2023-05-31T10:26:09.230Z,32.50
2023-05-31T10:28:44.827Z,30.60
2023-05-31T10:31:13.023Z,31.90
2023-05-31T10:33:46.313Z,31.80
2023-05-31T10:36:13.738Z,32.00
2023-05-31T10:38:51.018Z,30.30
2023-05-31T10:41:25.971Z,29.50
2023-05-31T10:44:00.487Z,30.60
2023-05-31T10:46:29.241Z,32.40
2023-05-31T10:49:00.890Z,32.20
2023-05-31T10:51:48.038Z,30.60
2023-05-31T10:54:20.448Z,31.30
2023-05-31T10:56:56.328Z,31.30
2023-05-31T10:59:30.486Z,30.50
2023-05-31T11:02:00.877Z,31.30
2023-05-31T11:04:28.307Z,31.80
2023-05-31T11:07:12.785Z,31.30
2023-05-31T11:09:40.800Z,31.10
2023-05-31T11:12:08.046Z,31.30
2023-05-31T11:14:35.552Z,30.00
2023-05-31T11:17:05.356Z,29.30
2023-05-31T11:19:35.124Z,29.90
2023-05-31T11:22:08.604Z,30.70
2023-05-31T11:24:39.147Z,30.70
2023-05-31T11:27:11.520Z,30.00
2023-05-31T11:29:53.811Z,29.40
2023-05-31T11:32:43.850Z,30.40
2023-05-31T11:35:15.441Z,29.90
2023-05-31T11:37:44.068Z,30.10
2023-05-31T11:40:14.225Z,29.80
2023-05-31T11:42:46.222Z,29.50
2023-05-31T11:45:21.583Z,29.40
2023-05-31T11:48:00.654Z,28.70
2023-05-31T11:50:27.821Z,29.40
2023-05-31T11:52:56.184Z,29.70
2023-05-31T11:55:23.200Z,30.10
2023-05-31T11:57:52.974Z,31.30
2023-05-31T12:00:22.573Z,29.40
2023-05-31T12:03:05.531Z,29.80
2023-05-31T12:05:32.705Z,29.50
2023-05-31T12:07:59.978Z,30.10
2023-05-31T12:10:28.857Z,30.20
2023-05-31T12:12:58.245Z,30.40
2023-05-31T12:15:30.803Z,30.70
2023-05-31T12:18:01.639Z,29.80
2023-05-31T12:20:32.167Z,29.10
2023-05-31T12:23:13.444Z,28.80
2023-05-31T12:25:51.147Z,28.50
2023-05-31T12:28:19.577Z,28.60
2023-05-31T12:30:52.722Z,28.90
2023-05-31T12:33:20.506Z,28.40
2023-05-31T12:35:48.552Z,27.70
2023-05-31T12:38:16.537Z,27.20
2023-05-31T12:40:45.337Z,27.10
2023-05-31T12:43:15.464Z,26.40
2023-05-31T12:45:43.181Z,26.30
2023-05-31T12:48:13.822Z,26.40
2023-05-31T12:50:47.857Z,26.30
2023-05-31T12:53:16.168Z,26.00
2023-05-31T12:55:44.050Z,26.20
2023-05-31T12:58:11.644Z,26.40
2023-05-31T13:00:40.130Z,26.60
2023-05-31T13:03:14.419Z,26.50
2023-05-31T13:05:41.799Z,26.50
2023-05-31T13:08:08.832Z,26.50
2023-05-31T13:10:37.351Z,26.50
2023-05-31T13:13:06.181Z,26.40
2023-05-31T13:15:33.380Z,26.30
2023-05-31T13:18:00.566Z,26.60
2023-05-31T13:20:27.634Z,26.50
2023-05-31T13:22:55.996Z,26.50
2023-05-31T13:25:25.280Z,26.10
2023-05-31T13:27:52.319Z,25.90
2023-05-31T13:30:19.429Z,25.90
2023-05-31T13:32:46.771Z,25.70
2023-05-31T13:35:13.849Z,26.10
2023-05-31T13:37:41.024Z,26.20
2023-05-31T13:40:08.536Z,26.00
2023-05-31T13:42:35.727Z,26.00
2023-05-31T13:45:02.672Z,25.80
2023-05-31T13:47:29.642Z,25.30
2023-05-31T13:49:56.687Z,25.50
2023-05-31T13:52:23.741Z,25.70
2023-05-31T13:54:50.667Z,25.80
2023-05-31T13:57:17.766Z,25.50
2023-05-31T13:59:44.819Z,25.80
2023-05-31T14:02:11.891Z,25.90
2023-05-31T14:04:38.908Z,26.30
2023-05-31T14:07:06.390Z,26.00
2023-05-31T14:09:33.386Z,25.80
2023-05-31T14:12:00.863Z,25.80
2023-05-31T14:14:27.970Z,25.90
2023-05-31T14:16:55.197Z,25.70
2023-05-31T14:19:22.403Z,25.70
2023-05-31T14:21:49.366Z,25.60
2023-05-31T14:24:17.036Z,25.70
2023-05-31T14:26:44.107Z,25.50
2023-05-31T14:29:11.112Z,25.20
2023-05-31T14:31:38.455Z,25.20
2023-05-31T14:34:05.872Z,25.50
2023-05-31T14:36:33.242Z,25.50
2023-05-31T14:39:00.720Z,25.50
2023-05-31T14:41:27.876Z,25.50
2023-05-31T14:43:54.887Z,25.60
2023-05-31T14:46:21.981Z,25.70
2023-05-31T14:48:49.091Z,25.50
2023-05-31T14:51:16.016Z,25.80
2023-05-31T14:53:42.977Z,25.90
2023-05-31T14:56:17.910Z,25.80
2023-05-31T14:58:47.566Z,25.80
2023-05-31T15:01:15.446Z,25.80
2023-05-31T15:03:42.574Z,25.10
2023-05-31T15:06:09.841Z,25.20
2023-05-31T15:08:37.278Z,25.70
2023-05-31T15:11:04.975Z,25.50
2023-05-31T15:13:32.123Z,25.70
2023-05-31T15:15:59.426Z,25.90
2023-05-31T15:18:26.636Z,25.70
2023-05-31T15:20:54.081Z,25.40
2023-05-31T15:23:21.131Z,25.60
2023-05-31T15:25:48.183Z,25.60
2023-05-31T15:28:15.163Z,25.20
2023-05-31T15:30:42.168Z,25.10
2023-05-31T15:33:09.186Z,25.40
2023-05-31T15:35:36.301Z,25.60
2023-05-31T15:38:03.480Z,25.60
2023-05-31T15:40:30.624Z,25.50
2023-05-31T15:42:57.752Z,25.60
2023-05-31T15:45:24.820Z,25.20
2023-05-31T15:47:51.883Z,25.20
2023-05-31T15:50:20.033Z,25.00
2023-05-31T15:52:47.122Z,24.70
2023-05-31T15:55:14.157Z,24.60
2023-05-31T15:57:41.198Z,25.00
2023-05-31T16:00:08.889Z,24.80
2023-05-31T16:02:38.971Z,24.70
2023-05-31T16:05:08.570Z,24.80
2023-05-31T16:07:35.822Z,25.00
2023-05-31T16:10:03.441Z,25.10
2023-05-31T16:12:30.551Z,25.20
2023-05-31T16:14:59.809Z,25.10
2023-05-31T16:17:26.891Z,25.10
2023-05-31T16:19:53.992Z,24.90
2023-05-31T16:22:21.111Z,24.80
2023-05-31T16:24:48.331Z,24.90
2023-05-31T16:27:15.802Z,25.10
2023-05-31T16:29:42.779Z,25.10
2023-05-31T16:32:10.165Z,25.20
2023-05-31T16:34:37.115Z,25.10
2023-05-31T16:37:04.975Z,25.00
2023-05-31T16:39:32.726Z,24.80
2023-05-31T16:42:00.129Z,24.80
2023-05-31T16:44:27.121Z,24.80
2023-05-31T16:46:54.334Z,24.80
2023-05-31T16:49:21.414Z,24.70
2023-05-31T16:51:48.448Z,24.60
2023-05-31T16:54:15.410Z,24.40
2023-05-31T16:56:42.463Z,24.40
2023-05-31T16:59:10.200Z,24.40
2023-05-31T17:01:37.259Z,24.20
2023-05-31T17:04:04.256Z,24.20
2023-05-31T17:06:31.379Z,24.30
2023-05-31T17:08:58.726Z,24.00
2023-05-31T17:11:27.401Z,24.20
2023-05-31T17:13:54.400Z,24.10
2023-05-31T17:16:21.435Z,24.10
2023-05-31T17:18:48.562Z,24.20
2023-05-31T17:21:16.174Z,24.20
2023-05-31T17:23:43.197Z,24.30
2023-05-31T17:26:10.127Z,24.30
2023-05-31T17:28:37.020Z,24.30
2023-05-31T17:31:04.835Z,24.20
2023-05-31T17:33:31.790Z,24.30
2023-05-31T17:36:00.328Z,24.20
2023-05-31T17:38:27.722Z,24.10
2023-05-31T17:40:54.669Z,24.10
2023-05-31T17:43:21.641Z,24.20
2023-05-31T17:45:50.552Z,24.20
2023-05-31T17:48:17.713Z,24.00
2023-05-31T17:50:44.712Z,24.00
2023-05-31T17:53:11.724Z,24.10
2023-05-31T17:55:38.993Z,24.00
2023-05-31T17:58:06.156Z,23.90
2023-05-31T18:00:33.088Z,23.80
2023-05-31T18:03:00.219Z,23.70
2023-05-31T18:05:27.254Z,23.70
2023-05-31T18:07:54.322Z,23.70
2023-05-31T18:10:21.388Z,23.70
2023-05-31T18:12:48.657Z,23.70
2023-05-31T18:15:16.001Z,23.70
2023-05-31T18:17:43.161Z,23.60
2023-05-31T18:20:10.489Z,23.60
2023-05-31T18:22:37.424Z,23.40
2023-05-31T18:25:04.694Z,23.40
2023-05-31T18:27:32.968Z,23.40
2023-05-31T18:30:00.241Z,23.30
2023-05-31T18:32:28.285Z,23.20
2023-05-31T18:34:55.444Z,23.20
2023-05-31T18:37:23.493Z,23.10
2023-05-31T18:39:50.534Z,23.00
2023-05-31T18:42:17.919Z,23.00
2023-05-31T18:44:46.886Z,22.90
2023-05-31T18:47:14.033Z,22.90
2023-05-31T18:49:41.007Z,22.80
2023-05-31T18:52:08.043Z,22.70
2023-05-31T18:54:35.006Z,22.60
2023-05-31T18:57:03.129Z,22.60
2023-05-31T18:59:31.053Z,22.50
2023-05-31T19:02:00.469Z,22.40
2023-05-31T19:04:27.798Z,22.30
2023-05-31T19:06:55.989Z,22.20
2023-05-31T19:09:23.371Z,22.10
2023-05-31T19:11:50.535Z,22.00
2023-05-31T19:14:17.946Z,21.90
2023-05-31T19:16:45.522Z,21.80
2023-05-31T19:19:13.709Z,21.80
2023-05-31T19:21:40.913Z,21.70
2023-05-31T19:24:08.419Z,21.60
2023-05-31T19:26:35.903Z,21.50
2023-05-31T19:29:04.153Z,21.50
2023-05-31T19:31:31.737Z,21.40
2023-05-31T19:34:00.059Z,21.30
2023-05-31T19:36:27.279Z,21.20
2023-05-31T19:38:54.404Z,21.20
2023-05-31T19:41:21.532Z,21.10
2023-05-31T19:43:48.702Z,21.10
2023-05-31T19:46:26.078Z,21.00
2023-05-31T19:48:53.771Z,20.90
2023-05-31T19:51:20.902Z,20.90
2023-05-31T19:53:47.901Z,20.80
2023-05-31T19:56:15.197Z,20.80
2023-05-31T19:58:42.205Z,20.70
2023-05-31T20:01:10.842Z,20.60
2023-05-31T20:03:38.592Z,20.60
2023-05-31T20:06:06.037Z,20.60
2023-05-31T20:08:33.808Z,20.50
2023-05-31T20:11:00.833Z,20.40
2023-05-31T20:13:27.897Z,20.40
2023-05-31T20:15:54.902Z,20.40
2023-05-31T20:18:23.750Z,20.30
2023-05-31T20:20:51.792Z,20.30
2023-05-31T20:23:19.494Z,20.20
2023-05-31T20:25:46.652Z,20.10
2023-05-31T20:28:14.117Z,20.10
2023-05-31T20:30:41.104Z,20.00
2023-05-31T20:33:08.208Z,20.00
2023-05-31T20:35:35.427Z,19.90
2023-05-31T20:38:02.842Z,19.80
2023-05-31T20:40:29.869Z,19.70
2023-05-31T20:42:56.941Z,19.60
2023-05-31T20:45:23.984Z,19.50
2023-05-31T20:47:51.507Z,19.50
2023-05-31T20:50:20.161Z,19.40
2023-05-31T20:52:47.423Z,19.30
2023-05-31T20:55:14.977Z,19.40
2023-05-31T20:57:42.541Z,19.30
2023-05-31T21:00:10.630Z,19.20
2023-05-31T21:02:37.740Z,19.20
2023-05-31T21:05:05.030Z,19.20
2023-05-31T21:07:31.988Z,19.10
2023-05-31T21:09:59.036Z,19.10
2023-05-31T21:12:26.314Z,19.10
2023-05-31T21:14:54.297Z,18.90
2023-05-31T21:17:21.678Z,18.90
2023-05-31T21:19:49.757Z,18.70
2023-05-31T21:22:16.775Z,18.70
2023-05-31T21:24:43.791Z,18.70
2023-05-31T21:27:10.775Z,18.60
2023-05-31T21:29:37.772Z,18.50
2023-05-31T21:32:05.015Z,18.40
2023-05-31T21:34:32.329Z,18.30
2023-05-31T21:36:59.759Z,18.20
2023-05-31T21:39:27.002Z,18.10
2023-05-31T21:41:54.556Z,18.10
2023-05-31T21:44:21.600Z,17.90
2023-05-31T21:46:48.690Z,17.90
2023-05-31T21:49:15.709Z,17.80
2023-05-31T21:51:42.741Z,17.70
2023-05-31T21:54:09.931Z,17.60
2023-05-31T21:56:36.930Z,17.60
2023-05-31T21:59:04.270Z,17.60
2023-05-31T22:01:31.234Z,17.50
2023-05-31T22:03:58.364Z,17.50
2023-05-31T22:06:26.272Z,17.50
2023-05-31T22:08:53.362Z,17.40
2023-05-31T22:11:21.641Z,17.40
2023-05-31T22:13:50.858Z,17.30
2023-05-31T22:16:22.055Z,17.20
2023-05-31T22:18:52.991Z,17.10
2023-05-31T22:21:22.489Z,17.10
2023-05-31T22:23:51.617Z,17.00
2023-05-31T22:26:22.425Z,17.10
2023-05-31T22:28:51.023Z,17.10
2023-05-31T22:31:18.931Z,17.00
2023-05-31T22:33:48.282Z,16.90
2023-05-31T22:36:16.092Z,16.90
2023-05-31T22:38:43.713Z,16.90
2023-05-31T22:41:11.027Z,16.80
2023-05-31T22:43:37.978Z,16.70
2023-05-31T22:46:05.072Z,16.60
2023-05-31T22:48:33.963Z,16.50
2023-05-31T22:51:02.441Z,16.40
2023-05-31T22:53:29.985Z,16.40
2023-05-31T22:55:56.951Z,16.30
2023-05-31T22:58:23.879Z,16.20
2023-05-31T23:00:50.996Z,16.20
2023-05-31T23:03:18.256Z,16.10
2023-05-31T23:05:46.764Z,16.00
2023-05-31T23:08:13.925Z,16.10
2023-05-31T23:10:41.662Z,16.00
2023-05-31T23:13:10.007Z,16.00
2023-05-31T23:15:38.343Z,16.00
2023-05-31T23:18:08.414Z,15.90
2023-05-31T23:20:38.927Z,15.70
2023-05-31T23:23:07.450Z,15.60
2023-05-31T23:25:34.713Z,15.60
2023-05-31T23:28:02.160Z,15.50
2023-05-31T23:30:29.207Z,15.40
2023-05-31T23:32:56.330Z,15.40
2023-05-31T23:35:23.509Z,15.40
2023-05-31T23:37:52.374Z,15.40
2023-05-31T23:40:19.579Z,15.30
2023-05-31T23:42:46.830Z,15.30
2023-05-31T23:45:14.223Z,15.20
2023-05-31T23:47:42.246Z,15.10
2023-05-31T23:50:10.245Z,15.10
2023-05-31T23:52:37.852Z,15.10
2023-05-31T23:55:05.643Z,15.00
2023-05-31T23:57:33.743Z,14.90
